Weather at Marriott Marquis San Diego Marina Helipad

Public forecast

Using degrees Fahrenheit for public forecast. Weather courtesy of forecast.io.

Closest aviation weather report (METAR) to Marriott Marquis San Diego Marina Helipad

Closest report is San Diego International Airport, 2.0 nm (3.7 km) NW.

2024/06/18 17:51 (retrieved 47 minutes ago)

KSAN 181751Z 19010KT 10SM SCT021 19/13 A2981 RMK AO2 SLP093 SCT V BKN T01940133 10194 20167 51004

Closest aviation forecast (TAF) to Marriott Marquis San Diego Marina Helipad

Closest forecast is San Diego International Airport, 2.0 nm (3.7 km) NW.

2024/06/18 18:24 (retrieved 14 minutes ago)

TAF KSAN 181721Z 1818/1924 20008KT P6SM SCT020 FM182000 21011KT P6SM FEW022 FM190300 20006KT P6SM BKN018 FM190600 18006KT P6SM OVC014 FM191700 20008KT P6SM SCT016 FM192000 22010KT P6SM SCT018